Terminal Aerodrome Forecast
Issued by NWS

Current Version | Previous Version | Graphics & Text | Print | Product List | Glossary On
Versions: 1 2 3 4 5 6 7 8 9 10 11 12 13 14 15 16 17 18 19 20 21 22 23 24
000
FTUS41 KILN 201408 AAA
TAFLCK
TAF AMD
KLCK 201408Z 2014/2112 06007KT 5SM BR OVC003
      TEMPO 2014/2015 2SM BR OVC005
     FM201500 09006KT P6SM BKN008
     FM201600 14006KT P6SM SCT012 SCT060
     FM202100 16006KT P6SM VCSH BKN050
     FM210200 14005KT P6SM SCT050 BKN150
     FM210900 15005KT P6SM -SHRA VCTS SCT030CB BKN070=

USA.gov is the U.S. government's official web portal to all federal, state and local government web resources and services.